sensor_id;sensor_type;location;lat;lon;timestamp;temperature;humidity
16513;DHT22;8369;48.030;11.598;2023-08-07T00:01:35;12.90;99.90
16513;DHT22;8369;48.030;11.598;2023-08-07T00:04:02;12.90;99.90
16513;DHT22;8369;48.030;11.598;2023-08-07T00:06:29;12.90;99.90
16513;DHT22;8369;48.030;11.598;2023-08-07T00:08:55;12.90;99.90
16513;DHT22;8369;48.030;11.598;2023-08-07T00:11:22;12.90;99.90
16513;DHT22;8369;48.030;11.598;2023-08-07T00:13:49;12.90;99.90
16513;DHT22;8369;48.030;11.598;2023-08-07T00:16:15;12.90;99.90
16513;DHT22;8369;48.030;11.598;2023-08-07T00:18:41;12.90;99.90
16513;DHT22;8369;48.030;11.598;2023-08-07T00:21:08;12.80;99.90
16513;DHT22;8369;48.030;11.598;2023-08-07T00:23:34;12.70;99.90
16513;DHT22;8369;48.030;11.598;2023-08-07T00:26:00;12.60;99.90
16513;DHT22;8369;48.030;11.598;2023-08-07T00:28:25;12.60;99.90
16513;DHT22;8369;48.030;11.598;2023-08-07T00:30:51;12.70;99.90
16513;DHT22;8369;48.030;11.598;2023-08-07T00:33:17;12.70;99.90
16513;DHT22;8369;48.030;11.598;2023-08-07T00:35:44;12.70;99.90
16513;DHT22;8369;48.030;11.598;2023-08-07T00:38:09;12.70;99.90
16513;DHT22;8369;48.030;11.598;2023-08-07T00:40:39;12.70;99.90
16513;DHT22;8369;48.030;11.598;2023-08-07T00:43:05;12.60;99.90
16513;DHT22;8369;48.030;11.598;2023-08-07T00:45:35;12.50;99.90
16513;DHT22;8369;48.030;11.598;2023-08-07T00:48:09;12.50;99.90
16513;DHT22;8369;48.030;11.598;2023-08-07T00:50:36;12.50;99.90
16513;DHT22;8369;48.030;11.598;2023-08-07T00:53:03;12.50;99.90
16513;DHT22;8369;48.030;11.598;2023-08-07T00:55:30;12.40;99.90
16513;DHT22;8369;48.030;11.598;2023-08-07T00:58:00;12.40;99.90
16513;DHT22;8369;48.030;11.598;2023-08-07T01:00:28;12.40;99.90
16513;DHT22;8369;48.030;11.598;2023-08-07T01:02:56;12.50;99.90
16513;DHT22;8369;48.030;11.598;2023-08-07T01:05:24;12.40;99.90
16513;DHT22;8369;48.030;11.598;2023-08-07T01:07:54;12.30;99.90
16513;DHT22;8369;48.030;11.598;2023-08-07T01:15:56;12.20;99.90
16513;DHT22;8369;48.030;11.598;2023-08-07T01:18:26;12.20;99.90
16513;DHT22;8369;48.030;11.598;2023-08-07T01:20:53;12.00;99.90
16513;DHT22;8369;48.030;11.598;2023-08-07T01:23:19;12.00;99.90
16513;DHT22;8369;48.030;11.598;2023-08-07T01:25:46;11.90;99.90
16513;DHT22;8369;48.030;11.598;2023-08-07T01:28:29;11.80;99.90
16513;DHT22;8369;48.030;11.598;2023-08-07T01:31:04;11.90;99.90
16513;DHT22;8369;48.030;11.598;2023-08-07T01:33:38;11.80;99.90
16513;DHT22;8369;48.030;11.598;2023-08-07T01:36:06;11.90;99.90
16513;DHT22;8369;48.030;11.598;2023-08-07T01:38:33;11.80;99.90
16513;DHT22;8369;48.030;11.598;2023-08-07T01:41:00;11.80;99.90
16513;DHT22;8369;48.030;11.598;2023-08-07T01:43:27;11.70;99.90
16513;DHT22;8369;48.030;11.598;2023-08-07T01:45:54;11.70;99.90
16513;DHT22;8369;48.030;11.598;2023-08-07T01:48:20;11.70;99.90
16513;DHT22;8369;48.030;11.598;2023-08-07T01:51:11;11.60;99.90
16513;DHT22;8369;48.030;11.598;2023-08-07T01:53:38;11.60;99.90
16513;DHT22;8369;48.030;11.598;2023-08-07T01:56:04;11.60;99.90
16513;DHT22;8369;48.030;11.598;2023-08-07T01:58:32;11.50;99.90
16513;DHT22;8369;48.030;11.598;2023-08-07T02:00:58;11.50;99.90
16513;DHT22;8369;48.030;11.598;2023-08-07T02:03:25;11.60;99.90
16513;DHT22;8369;48.030;11.598;2023-08-07T02:05:50;11.50;99.90
16513;DHT22;8369;48.030;11.598;2023-08-07T02:08:17;11.50;99.90
16513;DHT22;8369;48.030;11.598;2023-08-07T02:10:44;11.30;99.90
16513;DHT22;8369;48.030;11.598;2023-08-07T02:13:10;11.40;99.90
16513;DHT22;8369;48.030;11.598;2023-08-07T02:15:37;11.50;99.90
16513;DHT22;8369;48.030;11.598;2023-08-07T02:18:03;11.40;99.90
16513;DHT22;8369;48.030;11.598;2023-08-07T02:20:30;11.40;99.90
16513;DHT22;8369;48.030;11.598;2023-08-07T02:22:57;11.40;99.90
16513;DHT22;8369;48.030;11.598;2023-08-07T02:25:24;11.30;99.90
16513;DHT22;8369;48.030;11.598;2023-08-07T02:27:56;11.40;99.90
16513;DHT22;8369;48.030;11.598;2023-08-07T02:30:22;11.40;99.90
16513;DHT22;8369;48.030;11.598;2023-08-07T02:32:48;11.40;99.90
16513;DHT22;8369;48.030;11.598;2023-08-07T02:35:15;11.40;99.90
16513;DHT22;8369;48.030;11.598;2023-08-07T02:37:42;11.40;99.90
16513;DHT22;8369;48.030;11.598;2023-08-07T02:40:09;11.50;99.90
16513;DHT22;8369;48.030;11.598;2023-08-07T02:42:36;11.40;99.90
16513;DHT22;8369;48.030;11.598;2023-08-07T02:45:04;11.40;99.90
16513;DHT22;8369;48.030;11.598;2023-08-07T02:47:31;11.40;99.90
16513;DHT22;8369;48.030;11.598;2023-08-07T02:49:57;11.50;99.90
16513;DHT22;8369;48.030;11.598;2023-08-07T02:52:25;11.50;99.90
16513;DHT22;8369;48.030;11.598;2023-08-07T02:54:51;11.50;99.90
16513;DHT22;8369;48.030;11.598;2023-08-07T02:57:18;11.40;99.90
16513;DHT22;8369;48.030;11.598;2023-08-07T02:59:51;11.50;99.90
16513;DHT22;8369;48.030;11.598;2023-08-07T03:02:17;11.50;99.90
16513;DHT22;8369;48.030;11.598;2023-08-07T03:04:44;11.50;99.90
16513;DHT22;8369;48.030;11.598;2023-08-07T03:07:10;11.60;99.90
16513;DHT22;8369;48.030;11.598;2023-08-07T03:09:36;11.60;99.90
16513;DHT22;8369;48.030;11.598;2023-08-07T03:12:03;11.60;99.90
16513;DHT22;8369;48.030;11.598;2023-08-07T03:14:30;11.60;99.90
16513;DHT22;8369;48.030;11.598;2023-08-07T03:16:57;11.60;99.90
16513;DHT22;8369;48.030;11.598;2023-08-07T03:19:23;11.70;99.90
16513;DHT22;8369;48.030;11.598;2023-08-07T03:21:50;11.60;99.90
16513;DHT22;8369;48.030;11.598;2023-08-07T03:24:17;11.70;99.90
16513;DHT22;8369;48.030;11.598;2023-08-07T03:26:47;11.70;99.90
16513;DHT22;8369;48.030;11.598;2023-08-07T03:29:17;11.80;99.90
16513;DHT22;8369;48.030;11.598;2023-08-07T03:31:44;11.80;99.90
16513;DHT22;8369;48.030;11.598;2023-08-07T03:34:11;11.80;99.90
16513;DHT22;8369;48.030;11.598;2023-08-07T03:36:38;11.80;99.90
16513;DHT22;8369;48.030;11.598;2023-08-07T03:39:04;11.80;99.90
16513;DHT22;8369;48.030;11.598;2023-08-07T03:41:31;11.80;99.90
16513;DHT22;8369;48.030;11.598;2023-08-07T03:43:57;11.80;99.90
16513;DHT22;8369;48.030;11.598;2023-08-07T03:46:23;11.80;99.90
16513;DHT22;8369;48.030;11.598;2023-08-07T03:48:49;11.90;99.90
16513;DHT22;8369;48.030;11.598;2023-08-07T03:51:16;11.80;99.90
16513;DHT22;8369;48.030;11.598;2023-08-07T03:53:42;11.80;99.90
16513;DHT22;8369;48.030;11.598;2023-08-07T03:56:10;11.80;99.90
16513;DHT22;8369;48.030;11.598;2023-08-07T03:58:37;11.80;99.90
16513;DHT22;8369;48.030;11.598;2023-08-07T04:01:03;11.80;99.90
16513;DHT22;8369;48.030;11.598;2023-08-07T04:03:29;11.80;99.90
16513;DHT22;8369;48.030;11.598;2023-08-07T04:05:56;11.70;99.90
16513;DHT22;8369;48.030;11.598;2023-08-07T04:08:23;11.80;99.90
16513;DHT22;8369;48.030;11.598;2023-08-07T04:11:00;11.70;99.90
16513;DHT22;8369;48.030;11.598;2023-08-07T04:13:27;11.80;99.90
16513;DHT22;8369;48.030;11.598;2023-08-07T04:15:53;11.70;99.90
16513;DHT22;8369;48.030;11.598;2023-08-07T04:18:20;11.70;99.90
16513;DHT22;8369;48.030;11.598;2023-08-07T04:20:53;11.70;99.90
16513;DHT22;8369;48.030;11.598;2023-08-07T04:23:19;11.70;99.90
16513;DHT22;8369;48.030;11.598;2023-08-07T04:25:47;11.80;99.90
16513;DHT22;8369;48.030;11.598;2023-08-07T04:28:14;11.80;99.90
16513;DHT22;8369;48.030;11.598;2023-08-07T04:30:41;11.90;99.90
16513;DHT22;8369;48.030;11.598;2023-08-07T04:33:08;11.90;99.90
16513;DHT22;8369;48.030;11.598;2023-08-07T04:35:34;11.80;99.90
16513;DHT22;8369;48.030;11.598;2023-08-07T04:38:00;11.90;99.90
16513;DHT22;8369;48.030;11.598;2023-08-07T04:40:28;11.80;99.90
16513;DHT22;8369;48.030;11.598;2023-08-07T04:42:54;11.80;99.90
16513;DHT22;8369;48.030;11.598;2023-08-07T04:45:21;11.80;99.90
16513;DHT22;8369;48.030;11.598;2023-08-07T04:47:47;11.80;99.90
16513;DHT22;8369;48.030;11.598;2023-08-07T04:50:15;11.80;99.90
16513;DHT22;8369;48.030;11.598;2023-08-07T04:52:42;11.80;99.90
16513;DHT22;8369;48.030;11.598;2023-08-07T04:55:08;11.80;99.90
16513;DHT22;8369;48.030;11.598;2023-08-07T04:57:34;11.80;99.90
16513;DHT22;8369;48.030;11.598;2023-08-07T05:00:00;11.80;99.90
16513;DHT22;8369;48.030;11.598;2023-08-07T05:02:27;11.90;99.90
16513;DHT22;8369;48.030;11.598;2023-08-07T05:04:53;11.90;99.90
16513;DHT22;8369;48.030;11.598;2023-08-07T05:07:19;11.80;99.90
16513;DHT22;8369;48.030;11.598;2023-08-07T05:09:45;11.80;99.90
16513;DHT22;8369;48.030;11.598;2023-08-07T05:12:11;11.90;99.90
16513;DHT22;8369;48.030;11.598;2023-08-07T05:14:37;11.90;99.90
16513;DHT22;8369;48.030;11.598;2023-08-07T05:17:04;11.90;99.90
16513;DHT22;8369;48.030;11.598;2023-08-07T05:19:30;11.90;99.90
16513;DHT22;8369;48.030;11.598;2023-08-07T05:21:56;11.90;99.90
16513;DHT22;8369;48.030;11.598;2023-08-07T05:24:22;11.90;99.90
16513;DHT22;8369;48.030;11.598;2023-08-07T05:26:48;11.90;99.90
16513;DHT22;8369;48.030;11.598;2023-08-07T05:29:15;12.00;99.90
16513;DHT22;8369;48.030;11.598;2023-08-07T05:31:41;12.10;99.90
16513;DHT22;8369;48.030;11.598;2023-08-07T05:34:07;12.00;99.90
16513;DHT22;8369;48.030;11.598;2023-08-07T05:36:33;12.00;99.90
16513;DHT22;8369;48.030;11.598;2023-08-07T05:38:59;11.90;99.90
16513;DHT22;8369;48.030;11.598;2023-08-07T05:41:25;11.90;99.90
16513;DHT22;8369;48.030;11.598;2023-08-07T05:43:51;11.90;99.90
16513;DHT22;8369;48.030;11.598;2023-08-07T05:46:16;11.90;99.90
16513;DHT22;8369;48.030;11.598;2023-08-07T05:48:45;11.80;99.90
16513;DHT22;8369;48.030;11.598;2023-08-07T05:51:12;11.80;99.90
16513;DHT22;8369;48.030;11.598;2023-08-07T05:53:38;11.90;99.90
16513;DHT22;8369;48.030;11.598;2023-08-07T05:56:04;11.90;99.90
16513;DHT22;8369;48.030;11.598;2023-08-07T05:58:30;11.90;99.90
16513;DHT22;8369;48.030;11.598;2023-08-07T06:00:56;12.00;99.90
16513;DHT22;8369;48.030;11.598;2023-08-07T06:03:22;11.90;99.90
16513;DHT22;8369;48.030;11.598;2023-08-07T06:05:48;12.00;99.90
16513;DHT22;8369;48.030;11.598;2023-08-07T06:08:14;12.00;99.90
16513;DHT22;8369;48.030;11.598;2023-08-07T06:10:41;12.00;99.90
16513;DHT22;8369;48.030;11.598;2023-08-07T06:13:07;12.00;99.90
16513;DHT22;8369;48.030;11.598;2023-08-07T06:15:34;12.00;99.90
16513;DHT22;8369;48.030;11.598;2023-08-07T06:18:01;12.00;99.90
16513;DHT22;8369;48.030;11.598;2023-08-07T06:20:27;12.00;99.90
16513;DHT22;8369;48.030;11.598;2023-08-07T06:22:54;12.10;99.90
16513;DHT22;8369;48.030;11.598;2023-08-07T06:25:21;12.10;99.90
16513;DHT22;8369;48.030;11.598;2023-08-07T06:27:50;12.20;99.90
16513;DHT22;8369;48.030;11.598;2023-08-07T06:30:17;12.20;99.90
16513;DHT22;8369;48.030;11.598;2023-08-07T06:32:44;12.20;99.90
16513;DHT22;8369;48.030;11.598;2023-08-07T06:35:10;12.20;99.90
16513;DHT22;8369;48.030;11.598;2023-08-07T06:37:36;12.30;99.90
16513;DHT22;8369;48.030;11.598;2023-08-07T06:40:03;12.40;99.90
16513;DHT22;8369;48.030;11.598;2023-08-07T06:42:29;12.40;99.90
16513;DHT22;8369;48.030;11.598;2023-08-07T06:44:56;12.40;99.90
16513;DHT22;8369;48.030;11.598;2023-08-07T06:47:22;12.50;99.90
16513;DHT22;8369;48.030;11.598;2023-08-07T06:49:48;12.60;99.90
16513;DHT22;8369;48.030;11.598;2023-08-07T06:52:17;12.70;99.90
16513;DHT22;8369;48.030;11.598;2023-08-07T06:54:43;12.90;99.90
16513;DHT22;8369;48.030;11.598;2023-08-07T06:57:09;12.90;99.90
16513;DHT22;8369;48.030;11.598;2023-08-07T06:59:36;12.90;99.90
16513;DHT22;8369;48.030;11.598;2023-08-07T07:02:05;13.10;99.90
16513;DHT22;8369;48.030;11.598;2023-08-07T07:04:32;13.10;99.90
16513;DHT22;8369;48.030;11.598;2023-08-07T07:06:58;13.00;99.90
16513;DHT22;8369;48.030;11.598;2023-08-07T07:09:25;13.10;99.90
16513;DHT22;8369;48.030;11.598;2023-08-07T07:11:55;13.20;99.90
16513;DHT22;8369;48.030;11.598;2023-08-07T07:14:23;13.10;99.90
16513;DHT22;8369;48.030;11.598;2023-08-07T07:16:48;13.10;99.90
16513;DHT22;8369;48.030;11.598;2023-08-07T07:19:14;13.20;99.90
16513;DHT22;8369;48.030;11.598;2023-08-07T07:21:42;13.20;99.90
16513;DHT22;8369;48.030;11.598;2023-08-07T07:24:08;13.10;99.90
16513;DHT22;8369;48.030;11.598;2023-08-07T07:26:34;13.30;99.90
16513;DHT22;8369;48.030;11.598;2023-08-07T07:29:00;13.40;99.90
16513;DHT22;8369;48.030;11.598;2023-08-07T07:31:30;13.50;99.90
16513;DHT22;8369;48.030;11.598;2023-08-07T07:33:56;13.70;99.90
16513;DHT22;8369;48.030;11.598;2023-08-07T07:36:23;13.90;99.90
16513;DHT22;8369;48.030;11.598;2023-08-07T07:38:49;14.10;99.90
16513;DHT22;8369;48.030;11.598;2023-08-07T07:41:15;14.10;98.20
16513;DHT22;8369;48.030;11.598;2023-08-07T07:43:41;14.10;99.90
16513;DHT22;8369;48.030;11.598;2023-08-07T07:46:08;14.10;99.30
16513;DHT22;8369;48.030;11.598;2023-08-07T07:48:35;14.10;99.90
16513;DHT22;8369;48.030;11.598;2023-08-07T07:51:02;14.20;99.90
16513;DHT22;8369;48.030;11.598;2023-08-07T07:53:29;14.30;99.90
16513;DHT22;8369;48.030;11.598;2023-08-07T07:55:55;14.20;98.70
16513;DHT22;8369;48.030;11.598;2023-08-07T07:58:21;14.20;99.00
16513;DHT22;8369;48.030;11.598;2023-08-07T08:00:47;14.20;99.70
16513;DHT22;8369;48.030;11.598;2023-08-07T08:03:13;14.20;98.70
16513;DHT22;8369;48.030;11.598;2023-08-07T08:05:42;14.30;99.70
16513;DHT22;8369;48.030;11.598;2023-08-07T08:08:09;14.30;99.90
16513;DHT22;8369;48.030;11.598;2023-08-07T08:10:35;14.30;99.70
16513;DHT22;8369;48.030;11.598;2023-08-07T08:13:02;14.40;99.90
16513;DHT22;8369;48.030;11.598;2023-08-07T08:15:32;14.40;99.80
16513;DHT22;8369;48.030;11.598;2023-08-07T08:17:58;14.50;98.00
16513;DHT22;8369;48.030;11.598;2023-08-07T08:20:24;14.40;98.90
16513;DHT22;8369;48.030;11.598;2023-08-07T08:22:50;14.50;98.90
16513;DHT22;8369;48.030;11.598;2023-08-07T08:25:16;14.50;99.40
16513;DHT22;8369;48.030;11.598;2023-08-07T08:27:45;14.50;99.60
16513;DHT22;8369;48.030;11.598;2023-08-07T08:30:11;14.60;97.40
16513;DHT22;8369;48.030;11.598;2023-08-07T08:32:39;14.60;97.70
16513;DHT22;8369;48.030;11.598;2023-08-07T08:35:06;14.50;98.10
16513;DHT22;8369;48.030;11.598;2023-08-07T08:37:33;14.50;98.60
16513;DHT22;8369;48.030;11.598;2023-08-07T08:39:59;14.60;97.40
16513;DHT22;8369;48.030;11.598;2023-08-07T08:42:27;14.50;98.60
16513;DHT22;8369;48.030;11.598;2023-08-07T08:44:55;14.50;98.60
16513;DHT22;8369;48.030;11.598;2023-08-07T08:47:24;14.40;97.90
16513;DHT22;8369;48.030;11.598;2023-08-07T08:50:04;14.40;96.80
16513;DHT22;8369;48.030;11.598;2023-08-07T08:52:43;14.40;97.30
16513;DHT22;8369;48.030;11.598;2023-08-07T08:55:12;14.40;98.20
16513;DHT22;8369;48.030;11.598;2023-08-07T08:57:45;14.40;98.40
16513;DHT22;8369;48.030;11.598;2023-08-07T09:00:23;14.50;98.10
16513;DHT22;8369;48.030;11.598;2023-08-07T09:02:54;14.50;97.70
16513;DHT22;8369;48.030;11.598;2023-08-07T09:05:20;14.40;97.50
16513;DHT22;8369;48.030;11.598;2023-08-07T09:07:48;14.40;97.40
16513;DHT22;8369;48.030;11.598;2023-08-07T09:10:16;14.30;97.70
16513;DHT22;8369;48.030;11.598;2023-08-07T09:13:02;14.20;98.70
16513;DHT22;8369;48.030;11.598;2023-08-07T09:15:32;14.20;99.20
16513;DHT22;8369;48.030;11.598;2023-08-07T09:17:59;14.20;98.40
16513;DHT22;8369;48.030;11.598;2023-08-07T09:20:26;14.20;98.40
16513;DHT22;8369;48.030;11.598;2023-08-07T09:22:55;14.20;97.90
16513;DHT22;8369;48.030;11.598;2023-08-07T09:25:32;14.20;98.70
16513;DHT22;8369;48.030;11.598;2023-08-07T09:28:01;14.20;98.50
16513;DHT22;8369;48.030;11.598;2023-08-07T09:30:30;14.30;98.60
16513;DHT22;8369;48.030;11.598;2023-08-07T09:33:00;14.30;98.20
16513;DHT22;8369;48.030;11.598;2023-08-07T09:35:27;14.20;98.50
16513;DHT22;8369;48.030;11.598;2023-08-07T09:37:54;14.20;99.40
16513;DHT22;8369;48.030;11.598;2023-08-07T09:40:22;14.10;99.80
16513;DHT22;8369;48.030;11.598;2023-08-07T09:42:55;14.10;99.90
16513;DHT22;8369;48.030;11.598;2023-08-07T09:45:26;14.20;99.90
16513;DHT22;8369;48.030;11.598;2023-08-07T09:48:02;14.20;99.90
16513;DHT22;8369;48.030;11.598;2023-08-07T09:50:30;14.30;99.90
16513;DHT22;8369;48.030;11.598;2023-08-07T09:52:56;14.40;99.90
16513;DHT22;8369;48.030;11.598;2023-08-07T09:55:25;14.40;99.90
16513;DHT22;8369;48.030;11.598;2023-08-07T09:57:53;14.40;99.90
16513;DHT22;8369;48.030;11.598;2023-08-07T10:00:22;14.50;99.90
16513;DHT22;8369;48.030;11.598;2023-08-07T10:02:50;14.40;99.90
16513;DHT22;8369;48.030;11.598;2023-08-07T10:05:17;14.50;99.90
16513;DHT22;8369;48.030;11.598;2023-08-07T10:07:43;14.50;99.90
16513;DHT22;8369;48.030;11.598;2023-08-07T10:10:10;14.50;99.90
16513;DHT22;8369;48.030;11.598;2023-08-07T10:12:37;14.70;99.90
16513;DHT22;8369;48.030;11.598;2023-08-07T10:15:04;14.80;99.90
16513;DHT22;8369;48.030;11.598;2023-08-07T10:17:31;15.00;99.90
16513;DHT22;8369;48.030;11.598;2023-08-07T10:19:58;15.10;99.90
16513;DHT22;8369;48.030;11.598;2023-08-07T10:22:26;15.30;99.90
16513;DHT22;8369;48.030;11.598;2023-08-07T10:24:54;15.50;98.60
16513;DHT22;8369;48.030;11.598;2023-08-07T10:27:23;15.60;98.20
16513;DHT22;8369;48.030;11.598;2023-08-07T10:29:55;15.70;98.40
16513;DHT22;8369;48.030;11.598;2023-08-07T10:32:25;15.90;96.80
16513;DHT22;8369;48.030;11.598;2023-08-07T10:34:54;16.10;96.80
16513;DHT22;8369;48.030;11.598;2023-08-07T10:37:40;16.00;96.60
16513;DHT22;8369;48.030;11.598;2023-08-07T10:40:08;16.00;97.70
16513;DHT22;8369;48.030;11.598;2023-08-07T10:43:11;16.10;97.70
16513;DHT22;8369;48.030;11.598;2023-08-07T10:45:38;16.20;97.70
16513;DHT22;8369;48.030;11.598;2023-08-07T10:50:35;16.20;97.40
16513;DHT22;8369;48.030;11.598;2023-08-07T10:55:53;16.20;96.50
16513;DHT22;8369;48.030;11.598;2023-08-07T10:58:29;16.10;97.20
16513;DHT22;8369;48.030;11.598;2023-08-07T11:03:42;15.90;97.80
16513;DHT22;8369;48.030;11.598;2023-08-07T11:06:10;16.00;97.70
16513;DHT22;8369;48.030;11.598;2023-08-07T11:08:37;16.10;97.90
16513;DHT22;8369;48.030;11.598;2023-08-07T11:11:07;16.30;98.20
16513;DHT22;8369;48.030;11.598;2023-08-07T11:13:33;16.50;97.50
16513;DHT22;8369;48.030;11.598;2023-08-07T11:16:01;16.60;95.90
16513;DHT22;8369;48.030;11.598;2023-08-07T11:18:28;16.80;94.50
16513;DHT22;8369;48.030;11.598;2023-08-07T11:20:56;16.80;95.30
16513;DHT22;8369;48.030;11.598;2023-08-07T11:23:26;16.70;95.90
16513;DHT22;8369;48.030;11.598;2023-08-07T11:25:54;16.70;95.40
16513;DHT22;8369;48.030;11.598;2023-08-07T11:28:22;16.70;95.40
16513;DHT22;8369;48.030;11.598;2023-08-07T11:30:53;16.70;94.80
16513;DHT22;8369;48.030;11.598;2023-08-07T11:33:25;16.70;95.70
16513;DHT22;8369;48.030;11.598;2023-08-07T11:35:53;16.80;95.40
16513;DHT22;8369;48.030;11.598;2023-08-07T11:38:40;16.80;95.60
16513;DHT22;8369;48.030;11.598;2023-08-07T11:41:12;16.80;95.20
16513;DHT22;8369;48.030;11.598;2023-08-07T11:43:40;16.90;92.70
16513;DHT22;8369;48.030;11.598;2023-08-07T11:46:10;16.90;93.10
16513;DHT22;8369;48.030;11.598;2023-08-07T11:48:40;17.00;92.00
16513;DHT22;8369;48.030;11.598;2023-08-07T11:51:07;17.10;90.40
16513;DHT22;8369;48.030;11.598;2023-08-07T11:53:37;17.10;89.80
16513;DHT22;8369;48.030;11.598;2023-08-07T11:56:11;17.10;90.10
16513;DHT22;8369;48.030;11.598;2023-08-07T11:58:44;17.20;90.70
16513;DHT22;8369;48.030;11.598;2023-08-07T12:01:15;17.10;89.80
16513;DHT22;8369;48.030;11.598;2023-08-07T12:04:29;16.90;90.30
16513;DHT22;8369;48.030;11.598;2023-08-07T12:06:30;16.80;92.10
16513;DHT22;8369;48.030;11.598;2023-08-07T12:08:57;16.70;91.30
16513;DHT22;8369;48.030;11.598;2023-08-07T12:11:23;16.50;92.40
16513;DHT22;8369;48.030;11.598;2023-08-07T12:13:51;16.30;93.20
16513;DHT22;8369;48.030;11.598;2023-08-07T12:16:17;16.20;93.70
16513;DHT22;8369;48.030;11.598;2023-08-07T12:18:45;16.20;93.50
16513;DHT22;8369;48.030;11.598;2023-08-07T12:21:18;16.20;93.20
16513;DHT22;8369;48.030;11.598;2023-08-07T12:23:46;16.10;93.00
16513;DHT22;8369;48.030;11.598;2023-08-07T12:26:14;16.10;93.50
16513;DHT22;8369;48.030;11.598;2023-08-07T12:28:41;16.00;93.00
16513;DHT22;8369;48.030;11.598;2023-08-07T12:31:08;16.00;93.20
16513;DHT22;8369;48.030;11.598;2023-08-07T12:33:34;16.00;93.50
16513;DHT22;8369;48.030;11.598;2023-08-07T12:36:02;15.90;94.40
16513;DHT22;8369;48.030;11.598;2023-08-07T12:38:29;15.90;94.80
16513;DHT22;8369;48.030;11.598;2023-08-07T12:40:55;15.90;94.30
16513;DHT22;8369;48.030;11.598;2023-08-07T12:43:23;15.80;94.10
16513;DHT22;8369;48.030;11.598;2023-08-07T12:45:50;15.80;94.50
16513;DHT22;8369;48.030;11.598;2023-08-07T12:48:18;15.80;93.90
16513;DHT22;8369;48.030;11.598;2023-08-07T12:50:46;15.80;94.10
16513;DHT22;8369;48.030;11.598;2023-08-07T12:53:12;15.90;94.00
16513;DHT22;8369;48.030;11.598;2023-08-07T12:55:39;15.90;93.50
16513;DHT22;8369;48.030;11.598;2023-08-07T12:58:06;16.00;93.70
16513;DHT22;8369;48.030;11.598;2023-08-07T13:00:33;16.10;94.10
16513;DHT22;8369;48.030;11.598;2023-08-07T13:02:59;16.00;92.30
16513;DHT22;8369;48.030;11.598;2023-08-07T13:05:28;16.00;91.10
16513;DHT22;8369;48.030;11.598;2023-08-07T13:07:58;15.90;92.90
16513;DHT22;8369;48.030;11.598;2023-08-07T13:10:25;15.90;93.10
16513;DHT22;8369;48.030;11.598;2023-08-07T13:12:57;15.90;91.50
16513;DHT22;8369;48.030;11.598;2023-08-07T13:15:24;15.80;91.40
16513;DHT22;8369;48.030;11.598;2023-08-07T13:17:51;15.80;91.20
16513;DHT22;8369;48.030;11.598;2023-08-07T13:20:18;15.80;91.00
16513;DHT22;8369;48.030;11.598;2023-08-07T13:22:46;15.80;90.90
16513;DHT22;8369;48.030;11.598;2023-08-07T13:25:13;15.90;91.50
16513;DHT22;8369;48.030;11.598;2023-08-07T13:27:40;16.10;91.00
16513;DHT22;8369;48.030;11.598;2023-08-07T13:30:08;16.10;91.20
16513;DHT22;8369;48.030;11.598;2023-08-07T13:32:35;16.30;91.70
16513;DHT22;8369;48.030;11.598;2023-08-07T13:35:06;16.30;90.90
16513;DHT22;8369;48.030;11.598;2023-08-07T13:37:32;16.50;91.50
16513;DHT22;8369;48.030;11.598;2023-08-07T13:40:02;16.60;92.30
16513;DHT22;8369;48.030;11.598;2023-08-07T13:42:30;16.80;94.60
16513;DHT22;8369;48.030;11.598;2023-08-07T13:44:58;17.00;95.30
16513;DHT22;8369;48.030;11.598;2023-08-07T13:47:24;17.20;96.60
16513;DHT22;8369;48.030;11.598;2023-08-07T13:49:54;17.30;97.00
16513;DHT22;8369;48.030;11.598;2023-08-07T13:52:20;17.30;97.40
16513;DHT22;8369;48.030;11.598;2023-08-07T13:54:50;17.20;97.90
16513;DHT22;8369;48.030;11.598;2023-08-07T13:57:17;17.20;98.50
16513;DHT22;8369;48.030;11.598;2023-08-07T13:59:43;17.00;99.60
16513;DHT22;8369;48.030;11.598;2023-08-07T14:02:11;16.90;99.90
16513;DHT22;8369;48.030;11.598;2023-08-07T14:04:38;16.80;99.90
16513;DHT22;8369;48.030;11.598;2023-08-07T14:07:05;16.60;99.90
16513;DHT22;8369;48.030;11.598;2023-08-07T14:09:32;16.50;99.90
16513;DHT22;8369;48.030;11.598;2023-08-07T14:11:59;16.50;99.90
16513;DHT22;8369;48.030;11.598;2023-08-07T14:14:26;16.40;99.90
16513;DHT22;8369;48.030;11.598;2023-08-07T14:16:53;16.40;99.90
16513;DHT22;8369;48.030;11.598;2023-08-07T14:19:23;16.40;99.90
16513;DHT22;8369;48.030;11.598;2023-08-07T14:21:51;16.40;99.90
16513;DHT22;8369;48.030;11.598;2023-08-07T14:24:19;16.30;99.90
16513;DHT22;8369;48.030;11.598;2023-08-07T14:26:46;16.40;99.90
16513;DHT22;8369;48.030;11.598;2023-08-07T14:29:18;16.50;99.90
16513;DHT22;8369;48.030;11.598;2023-08-07T14:31:45;16.50;99.90
16513;DHT22;8369;48.030;11.598;2023-08-07T14:34:13;16.60;99.90
16513;DHT22;8369;48.030;11.598;2023-08-07T14:36:41;16.60;99.90
16513;DHT22;8369;48.030;11.598;2023-08-07T14:39:12;16.70;99.90
16513;DHT22;8369;48.030;11.598;2023-08-07T14:41:39;16.70;99.90
16513;DHT22;8369;48.030;11.598;2023-08-07T14:44:06;16.60;99.90
16513;DHT22;8369;48.030;11.598;2023-08-07T14:46:36;16.60;99.90
16513;DHT22;8369;48.030;11.598;2023-08-07T14:49:07;16.50;99.90
16513;DHT22;8369;48.030;11.598;2023-08-07T14:51:35;16.50;99.90
16513;DHT22;8369;48.030;11.598;2023-08-07T14:54:01;16.40;99.90
16513;DHT22;8369;48.030;11.598;2023-08-07T14:56:31;16.40;99.90
16513;DHT22;8369;48.030;11.598;2023-08-07T14:59:01;16.30;99.90
16513;DHT22;8369;48.030;11.598;2023-08-07T15:01:28;16.20;99.90
16513;DHT22;8369;48.030;11.598;2023-08-07T15:03:59;16.10;99.90
16513;DHT22;8369;48.030;11.598;2023-08-07T15:06:26;16.00;99.90
16513;DHT22;8369;48.030;11.598;2023-08-07T15:08:52;16.00;99.90
16513;DHT22;8369;48.030;11.598;2023-08-07T15:11:18;16.00;99.90
16513;DHT22;8369;48.030;11.598;2023-08-07T15:13:44;15.90;99.90
16513;DHT22;8369;48.030;11.598;2023-08-07T15:16:11;16.00;99.90
16513;DHT22;8369;48.030;11.598;2023-08-07T15:18:44;16.00;99.90
16513;DHT22;8369;48.030;11.598;2023-08-07T15:21:14;16.20;99.90
16513;DHT22;8369;48.030;11.598;2023-08-07T15:23:40;16.30;99.30
16513;DHT22;8369;48.030;11.598;2023-08-07T15:26:08;16.40;99.90
16513;DHT22;8369;48.030;11.598;2023-08-07T15:28:35;16.50;99.90
16513;DHT22;8369;48.030;11.598;2023-08-07T15:31:02;16.50;99.90
16513;DHT22;8369;48.030;11.598;2023-08-07T15:33:29;16.50;99.90
16513;DHT22;8369;48.030;11.598;2023-08-07T15:36:04;16.50;99.90
16513;DHT22;8369;48.030;11.598;2023-08-07T15:38:31;16.30;99.90
16513;DHT22;8369;48.030;11.598;2023-08-07T15:41:01;16.20;99.90
16513;DHT22;8369;48.030;11.598;2023-08-07T15:43:27;16.20;99.90
16513;DHT22;8369;48.030;11.598;2023-08-07T15:45:58;16.10;99.90
16513;DHT22;8369;48.030;11.598;2023-08-07T15:48:25;15.90;99.90